Time;durP1;ratioP1;P1;durP2;ratioP2;P2;SDS_P1;SDS_P2;PMS_P1;PMS_P2;Temp;Humidity;BMP_temperature;BMP_pressure;BME280_temperature;BME280_humidity;BME280_pressure;Samples;Min_cycle;Max_cycle;Signal;HPM_P1;HPM_P2
2022/11/01 00:01:52;;;;;;;11.50;5.65;;;;;;;;;;5091231;28;20063;-51
2022/11/01 00:04:20;;;;;;;11.20;5.68;;;;;;;;;;5090398;28;20056;-50
2022/11/01 00:06:50;;;;;;;11.93;6.10;;;;;;;;;;5091220;28;20055;-54
2022/11/01 00:09:17;;;;;;;10.57;5.60;;;;;;;;;;5092645;28;20040;-52
2022/11/01 00:11:45;;;;;;;8.73;4.47;;;;;;;;;;5092488;28;20044;-51
2022/11/01 00:14:29;;;;;;;7.57;4.28;;;;;;;;;;5092636;28;20056;-52
2022/11/01 00:16:56;;;;;;;7.32;4.20;;;;;;;;;;5092661;28;20250;-51
2022/11/01 00:19:23;;;;;;;8.48;3.88;;;;;;;;;;5091559;28;20039;-52
2022/11/01 00:21:58;;;;;;;9.50;4.55;;;;;;;;;;5091458;28;20457;-51
2022/11/01 00:24:29;;;;;;;7.60;3.80;;;;;;;;;;5091323;28;20056;-53
2022/11/01 00:27:00;;;;;;;8.55;4.45;;;;;;;;;;5090818;28;20047;-50
2022/11/01 00:29:29;;;;;;;8.70;3.53;;;;;;;;;;5092419;28;20076;-50
2022/11/01 00:31:59;;;;;;;8.52;3.70;;;;;;;;;;5084795;28;20052;-51
2022/11/01 00:34:27;;;;;;;8.77;4.03;;;;;;;;;;5091926;28;20058;-52
2022/11/01 00:36:56;;;;;;;10.13;4.53;;;;;;;;;;5092397;28;20062;-51
2022/11/01 00:39:24;;;;;;;10.63;5.03;;;;;;;;;;5092394;28;20044;-50
2022/11/01 00:41:53;;;;;;;8.25;3.78;;;;;;;;;;5088576;28;20062;-54
2022/11/01 00:44:23;;;;;;;8.30;3.80;;;;;;;;;;5091850;28;20441;-53
2022/11/01 00:47:05;;;;;;;8.88;4.28;;;;;;;;;;5091906;28;20058;-54
2022/11/01 00:49:34;;;;;;;7.85;3.60;;;;;;;;;;5092292;28;20047;-50
2022/11/01 00:52:04;;;;;;;7.65;3.70;;;;;;;;;;5096108;28;20135;-54
2022/11/01 00:54:31;;;;;;;5.80;3.10;;;;;;;;;;5086703;28;20048;-53
2022/11/01 00:56:59;;;;;;;6.78;3.40;;;;;;;;;;5095639;28;20052;-51
2022/11/01 00:59:28;;;;;;;8.52;2.85;;;;;;;;;;5084696;28;20044;-51
2022/11/01 01:02:06;;;;;;;7.90;3.20;;;;;;;;;;5095654;28;20100;-51
2022/11/01 01:04:40;;;;;;;6.85;3.00;;;;;;;;;;5096115;28;20044;-52
2022/11/01 01:07:07;;;;;;;6.75;3.40;;;;;;;;;;5095746;28;20066;-51
2022/11/01 01:09:34;;;;;;;7.80;3.83;;;;;;;;;;5095753;28;20052;-53
2022/11/01 01:12:05;;;;;;;5.38;2.90;;;;;;;;;;5093553;28;20044;-50
2022/11/01 01:14:34;;;;;;;6.80;3.33;;;;;;;;;;5095753;28;20129;-52
2022/11/01 01:17:13;;;;;;;6.20;3.22;;;;;;;;;;5095893;28;20063;-53
2022/11/01 01:19:40;;;;;;;7.93;3.60;;;;;;;;;;5095101;28;20043;-52
2022/11/01 01:22:10;;;;;;;6.90;3.45;;;;;;;;;;5094739;28;20466;-54
2022/11/01 01:24:43;;;;;;;5.38;2.75;;;;;;;;;;5093658;28;20059;-52
2022/11/01 01:27:11;;;;;;;6.57;2.40;;;;;;;;;;5092921;28;20338;-54
2022/11/01 01:29:40;;;;;;;6.10;3.05;;;;;;;;;;5094923;28;20432;-53
2022/11/01 01:32:09;;;;;;;7.95;3.47;;;;;;;;;;5095242;28;20056;-54
2022/11/01 01:37:19;;;;;;;5.95;3.03;;;;;;;;;;5095364;28;20067;-53
2022/11/01 01:39:47;;;;;;;6.55;3.05;;;;;;;;;;5089213;28;20555;-54
2022/11/01 01:42:16;;;;;;;6.38;2.88;;;;;;;;;;5095463;28;20071;-51
2022/11/01 01:45:03;;;;;;;5.68;2.58;;;;;;;;;;5093608;28;20147;-53
2022/11/01 01:47:33;;;;;;;6.85;2.53;;;;;;;;;;5094804;28;20561;-51
2022/11/01 01:50:05;;;;;;;6.45;3.25;;;;;;;;;;5085910;28;20060;-52
2022/11/01 01:52:35;;;;;;;4.60;2.47;;;;;;;;;;5087877;28;20058;-53
2022/11/01 01:55:06;;;;;;;4.82;2.40;;;;;;;;;;5091184;28;20465;-50
2022/11/01 01:57:33;;;;;;;4.28;2.30;;;;;;;;;;5088926;28;20055;-52
2022/11/01 02:00:00;;;;;;;5.38;2.63;;;;;;;;;;5089929;28;20063;-50
2022/11/01 02:02:27;;;;;;;6.93;2.47;;;;;;;;;;5094044;28;20044;-52
2022/11/01 02:05:09;;;;;;;4.90;2.50;;;;;;;;;;5094695;28;20062;-54
2022/11/01 02:07:37;;;;;;;5.07;2.72;;;;;;;;;;5092868;28;20058;-51
2022/11/01 02:10:03;;;;;;;6.15;2.35;;;;;;;;;;5094931;28;20063;-53
2022/11/01 02:12:33;;;;;;;6.35;2.78;;;;;;;;;;5094942;28;20063;-51
2022/11/01 02:15:01;;;;;;;3.88;2.28;;;;;;;;;;5094599;28;20051;-51
2022/11/01 02:17:30;;;;;;;5.38;2.10;;;;;;;;;;5094871;28;20051;-51
2022/11/01 02:20:12;;;;;;;3.53;2.00;;;;;;;;;;5089314;28;20063;-53
2022/11/01 02:22:47;;;;;;;5.45;2.22;;;;;;;;;;5092380;28;20063;-50
2022/11/01 02:25:35;;;;;;;5.55;2.50;;;;;;;;;;5091326;28;20051;-53
2022/11/01 02:28:19;;;;;;;5.95;3.03;;;;;;;;;;5089289;28;20059;-52
2022/11/01 02:30:54;;;;;;;4.07;2.08;;;;;;;;;;5094493;28;20354;-54
2022/11/01 02:33:30;;;;;;;10.27;3.00;;;;;;;;;;5094000;28;20373;-52
2022/11/01 02:36:02;;;;;;;7.15;2.65;;;;;;;;;;5093898;28;20375;-51
2022/11/01 02:38:36;;;;;;;5.50;2.00;;;;;;;;;;5094549;28;20040;-51
2022/11/01 02:41:08;;;;;;;6.53;2.75;;;;;;;;;;5093997;28;20062;-52
2022/11/01 02:43:38;;;;;;;13.68;3.20;;;;;;;;;;5094201;28;20087;-54
2022/11/01 02:48:52;;;;;;;5.63;2.38;;;;;;;;;;5093478;28;20086;-53
2022/11/01 02:51:21;;;;;;;4.65;2.22;;;;;;;;;;5080995;28;20083;-53
2022/11/01 02:53:47;;;;;;;5.57;2.60;;;;;;;;;;5091083;28;20055;-53
2022/11/01 02:56:16;;;;;;;5.22;2.15;;;;;;;;;;5093978;28;20055;-52
2022/11/01 02:58:43;;;;;;;4.90;2.65;;;;;;;;;;5093508;28;20051;-50
2022/11/01 03:01:14;;;;;;;4.22;1.98;;;;;;;;;;5093796;28;20059;-51
2022/11/01 03:03:43;;;;;;;5.28;2.33;;;;;;;;;;5093811;28;20482;-49
2022/11/01 03:06:18;;;;;;;5.45;2.60;;;;;;;;;;5093643;28;20051;-50
2022/11/01 03:08:45;;;;;;;6.93;2.80;;;;;;;;;;5093624;28;20040;-53
2022/11/01 03:11:15;;;;;;;3.50;1.67;;;;;;;;;;5092108;28;20040;-52
2022/11/01 03:13:59;;;;;;;4.88;2.20;;;;;;;;;;5092871;28;20051;-50
2022/11/01 03:16:29;;;;;;;3.78;2.15;;;;;;;;;;5092961;28;20460;-54
2022/11/01 03:19:05;;;;;;;3.72;1.95;;;;;;;;;;5093327;28;20036;-53
2022/11/01 03:21:51;;;;;;;7.18;2.63;;;;;;;;;;5092801;28;20056;-53
2022/11/01 03:24:20;;;;;;;5.13;2.20;;;;;;;;;;5093414;28;20058;-52
2022/11/01 03:26:49;;;;;;;3.95;1.90;;;;;;;;;;5092709;28;20484;-54
2022/11/01 03:29:18;;;;;;;5.35;2.00;;;;;;;;;;5093501;28;20048;-52
2022/11/01 03:31:46;;;;;;;5.43;2.50;;;;;;;;;;5093243;28;20134;-51
2022/11/01 03:34:15;;;;;;;6.47;2.65;;;;;;;;;;5088191;28;20052;-52
2022/11/01 03:36:53;;;;;;;5.28;2.55;;;;;;;;;;5088724;28;20059;-50
2022/11/01 03:39:33;;;;;;;4.80;2.30;;;;;;;;;;5093233;28;20075;-53
2022/11/01 03:42:11;;;;;;;5.32;2.28;;;;;;;;;;5093155;28;20071;-53
2022/11/01 03:44:43;;;;;;;4.32;2.10;;;;;;;;;;5092646;28;20055;-54
2022/11/01 03:47:11;;;;;;;3.83;1.90;;;;;;;;;;5088734;28;20052;-50
2022/11/01 03:49:38;;;;;;;5.38;2.30;;;;;;;;;;5092890;28;20063;-51
2022/11/01 03:52:06;;;;;;;4.15;1.98;;;;;;;;;;5092610;28;20056;-54
2022/11/01 03:54:33;;;;;;;7.35;2.20;;;;;;;;;;5092742;28;20052;-52
2022/11/01 03:56:59;;;;;;;5.35;1.83;;;;;;;;;;5092667;28;20058;-54
2022/11/01 03:59:29;;;;;;;3.58;2.05;;;;;;;;;;5091373;28;20468;-52
2022/11/01 04:01:56;;;;;;;5.13;2.40;;;;;;;;;;5092382;28;20536;-54
2022/11/01 04:04:24;;;;;;;5.18;1.80;;;;;;;;;;5092822;28;20075;-53
2022/11/01 04:06:53;;;;;;;4.75;2.13;;;;;;;;;;5092166;28;20059;-50
2022/11/01 04:09:32;;;;;;;4.88;2.05;;;;;;;;;;5092715;28;20108;-53
2022/11/01 04:12:02;;;;;;;4.75;2.00;;;;;;;;;;5092771;28;20048;-54
2022/11/01 04:22:46;;;;;;;13.23;4.50;;;;;;;;;;5092456;28;20327;-52
2022/11/01 04:25:28;;;;;;;11.23;4.38;;;;;;;;;;5092411;28;20491;-50
2022/11/01 04:27:57;;;;;;;12.35;4.20;;;;;;;;;;5096600;28;20056;-52
2022/11/01 04:30:25;;;;;;;15.25;4.90;;;;;;;;;;5083855;28;20078;-52
2022/11/01 04:32:53;;;;;;;11.38;4.32;;;;;;;;;;5096329;28;20052;-53
2022/11/01 04:35:23;;;;;;;15.45;6.88;;;;;;;;;;5095978;28;20044;-51
2022/11/01 04:37:55;;;;;;;18.23;6.90;;;;;;;;;;5095871;28;20056;-54
2022/11/01 04:40:27;;;;;;;13.75;4.97;;;;;;;;;;5096343;28;20052;-53
2022/11/01 04:42:57;;;;;;;10.85;4.53;;;;;;;;;;5082690;28;20048;-50
2022/11/01 04:45:27;;;;;;;10.80;4.13;;;;;;;;;;5096000;28;20075;-50
2022/11/01 04:48:05;;;;;;;11.07;3.90;;;;;;;;;;5095155;28;20065;-53
2022/11/01 04:50:33;;;;;;;11.55;3.92;;;;;;;;;;5096152;28;20040;-54
2022/11/01 04:53:00;;;;;;;11.77;5.35;;;;;;;;;;5096578;28;20059;-51
2022/11/01 04:55:33;;;;;;;9.30;3.90;;;;;;;;;;5082678;28;20049;-51
2022/11/01 04:58:03;;;;;;;10.80;4.75;;;;;;;;;;5096056;28;20460;-52
2022/11/01 05:00:31;;;;;;;10.30;4.28;;;;;;;;;;5095297;28;20388;-50
2022/11/01 05:03:02;;;;;;;6.45;2.88;;;;;;;;;;5094830;28;20050;-51
2022/11/01 05:05:30;;;;;;;8.13;3.08;;;;;;;;;;5095497;28;20471;-53
2022/11/01 05:08:03;;;;;;;6.20;3.35;;;;;;;;;;5095935;28;20048;-52
2022/11/01 05:10:31;;;;;;;6.38;2.80;;;;;;;;;;5095489;28;20052;-53
2022/11/01 05:13:02;;;;;;;5.25;2.92;;;;;;;;;;5096143;28;20048;-50
2022/11/01 05:15:29;;;;;;;7.57;2.72;;;;;;;;;;5095717;28;20134;-51
2022/11/01 05:17:57;;;;;;;5.28;2.47;;;;;;;;;;5096077;28;20048;-52
2022/11/01 05:20:27;;;;;;;7.07;2.63;;;;;;;;;;5089135;28;20094;-51
2022/11/01 05:23:05;;;;;;;6.90;2.72;;;;;;;;;;5095754;28;20052;-51
2022/11/01 05:25:34;;;;;;;8.82;3.55;;;;;;;;;;5084106;28;20052;-51
2022/11/01 05:28:04;;;;;;;8.57;3.10;;;;;;;;;;5095540;28;20074;-51
2022/11/01 05:30:34;;;;;;;6.88;3.33;;;;;;;;;;5083784;28;20051;-53
2022/11/01 05:33:05;;;;;;;6.68;2.90;;;;;;;;;;5095215;28;20048;-52
2022/11/01 05:35:33;;;;;;;8.90;3.97;;;;;;;;;;5092259;28;20061;-53
2022/11/01 05:38:01;;;;;;;8.18;3.42;;;;;;;;;;5095362;28;20044;-54
2022/11/01 05:40:29;;;;;;;8.35;3.47;;;;;;;;;;5095298;28;20142;-52
2022/11/01 05:43:10;;;;;;;5.75;2.90;;;;;;;;;;5095120;28;20055;-54
2022/11/01 05:45:38;;;;;;;8.88;4.93;;;;;;;;;;5094661;28;20060;-53
2022/11/01 05:48:05;;;;;;;7.95;3.70;;;;;;;;;;5082489;28;20048;-53
2022/11/01 05:50:32;;;;;;;8.25;3.75;;;;;;;;;;5094307;28;20048;-53
2022/11/01 05:53:04;;;;;;;8.02;4.00;;;;;;;;;;5094836;28;20063;-51
2022/11/01 05:55:32;;;;;;;7.20;3.13;;;;;;;;;;5094463;28;20369;-54
2022/11/01 05:58:15;;;;;;;7.45;2.95;;;;;;;;;;5095120;28;20047;-52
2022/11/01 06:00:43;;;;;;;6.75;2.90;;;;;;;;;;5094442;28;20452;-51
2022/11/01 06:03:12;;;;;;;7.43;3.08;;;;;;;;;;5095215;28;20068;-54
2022/11/01 06:05:38;;;;;;;10.43;4.15;;;;;;;;;;5094847;28;20052;-50
2022/11/01 06:08:06;;;;;;;11.50;3.63;;;;;;;;;;5094573;28;20052;-50
2022/11/01 06:10:33;;;;;;;9.85;4.03;;;;;;;;;;5094351;28;20052;-50
2022/11/01 06:13:12;;;;;;;9.55;4.85;;;;;;;;;;5094926;28;20051;-53
2022/11/01 06:15:40;;;;;;;10.00;3.90;;;;;;;;;;5095021;28;20056;-54
2022/11/01 06:18:10;;;;;;;13.73;5.25;;;;;;;;;;5094168;28;20044;-54
2022/11/01 06:20:37;;;;;;;11.75;4.38;;;;;;;;;;5094057;28;20484;-50
2022/11/01 06:23:08;;;;;;;17.05;5.32;;;;;;;;;;5091686;28;20445;-50
2022/11/01 06:25:38;;;;;;;9.35;4.25;;;;;;;;;;5094392;28;20048;-50
2022/11/01 06:28:15;;;;;;;14.10;5.85;;;;;;;;;;5094112;28;20047;-49
2022/11/01 06:30:43;;;;;;;16.23;6.97;;;;;;;;;;5088576;28;20377;-50
2022/11/01 06:33:09;;;;;;;16.92;7.40;;;;;;;;;;5094357;28;20056;-51
2022/11/01 06:35:37;;;;;;;17.65;8.18;;;;;;;;;;5094291;28;20052;-53
2022/11/01 06:38:08;;;;;;;17.33;6.57;;;;;;;;;;5094504;28;20052;-53
2022/11/01 06:40:36;;;;;;;16.25;6.25;;;;;;;;;;5094309;28;20047;-51
2022/11/01 06:43:05;;;;;;;16.23;6.65;;;;;;;;;;5089344;28;20040;-54
2022/11/01 06:45:34;;;;;;;13.10;5.70;;;;;;;;;;5092730;28;20392;-53
2022/11/01 06:48:03;;;;;;;13.88;6.00;;;;;;;;;;5091937;28;20083;-51
2022/11/01 06:50:31;;;;;;;15.90;6.75;;;;;;;;;;5092239;28;20449;-54
2022/11/01 06:53:00;;;;;;;13.63;5.80;;;;;;;;;;5087610;28;20044;-53
2022/11/01 06:55:28;;;;;;;14.43;5.38;;;;;;;;;;5090428;28;20048;-54
2022/11/01 06:57:57;;;;;;;20.63;7.75;;;;;;;;;;5093609;28;20480;-53
2022/11/01 07:00:24;;;;;;;16.27;5.50;;;;;;;;;;5090470;28;20051;-51
2022/11/01 07:02:59;;;;;;;23.80;9.38;;;;;;;;;;5091118;28;20048;-51
2022/11/01 07:05:27;;;;;;;19.40;8.35;;;;;;;;;;5093544;28;20040;-50
2022/11/01 07:07:56;;;;;;;18.10;7.75;;;;;;;;;;5093334;28;20052;-52
2022/11/01 07:10:23;;;;;;;24.67;10.18;;;;;;;;;;5093324;28;20487;-52
2022/11/01 07:12:52;;;;;;;17.40;8.40;;;;;;;;;;5093499;28;20047;-51
2022/11/01 07:15:21;;;;;;;13.27;6.28;;;;;;;;;;5093542;28;20048;-54
2022/11/01 07:17:48;;;;;;;17.50;7.50;;;;;;;;;;5081407;28;20050;-50
2022/11/01 07:20:17;;;;;;;20.00;7.50;;;;;;;;;;5090900;28;20052;-53
2022/11/01 07:22:44;;;;;;;16.38;7.32;;;;;;;;;;5085909;28;20045;-51
2022/11/01 07:25:11;;;;;;;15.82;7.00;;;;;;;;;;5089801;28;20055;-53
2022/11/01 07:27:37;;;;;;;19.20;7.95;;;;;;;;;;5092970;28;20139;-53
2022/11/01 07:30:06;;;;;;;14.00;6.60;;;;;;;;;;5092710;28;20051;-52
2022/11/01 07:32:34;;;;;;;13.77;6.03;;;;;;;;;;5085044;28;20062;-51
2022/11/01 07:35:01;;;;;;;16.33;5.70;;;;;;;;;;5091643;28;20052;-51
2022/11/01 07:37:32;;;;;;;15.25;7.05;;;;;;;;;;5091985;28;20048;-51
2022/11/01 07:40:00;;;;;;;16.70;6.90;;;;;;;;;;5092728;28;20052;-50
2022/11/01 07:42:30;;;;;;;17.88;7.30;;;;;;;;;;5092790;28;20059;-54
2022/11/01 07:44:59;;;;;;;17.30;6.97;;;;;;;;;;5084597;28;20078;-52
2022/11/01 07:47:26;;;;;;;15.35;6.20;;;;;;;;;;5092985;28;20048;-50
2022/11/01 07:49:52;;;;;;;18.48;8.40;;;;;;;;;;5092466;28;20121;-49
2022/11/01 07:52:20;;;;;;;17.08;8.52;;;;;;;;;;5088906;28;20380;-48
2022/11/01 07:54:50;;;;;;;15.48;6.90;;;;;;;;;;5083521;28;20054;-50
2022/11/01 07:57:18;;;;;;;16.38;7.22;;;;;;;;;;5090823;28;20058;-50
2022/11/01 07:59:46;;;;;;;22.67;8.77;;;;;;;;;;5091543;28;20050;-50
2022/11/01 08:02:12;;;;;;;22.63;9.90;;;;;;;;;;5086130;28;20058;-49
2022/11/01 08:04:38;;;;;;;23.77;11.18;;;;;;;;;;5092356;28;20059;-50
2022/11/01 08:07:07;;;;;;;25.00;10.88;;;;;;;;;;5091755;28;20528;-50
2022/11/01 08:09:34;;;;;;;26.90;8.63;;;;;;;;;;5092450;28;20066;-50
2022/11/01 08:12:14;;;;;;;18.75;9.05;;;;;;;;;;5092301;28;20198;-54
2022/11/01 08:14:42;;;;;;;21.42;9.70;;;;;;;;;;5087163;28;20077;-53
2022/11/01 08:17:12;;;;;;;18.80;7.45;;;;;;;;;;5092216;28;20051;-49
2022/11/01 08:19:41;;;;;;;23.35;9.57;;;;;;;;;;5092404;28;20063;-49
2022/11/01 08:22:08;;;;;;;24.58;10.93;;;;;;;;;;5089079;28;20052;-50
2022/11/01 08:24:39;;;;;;;23.40;11.35;;;;;;;;;;5092070;28;20059;-50
2022/11/01 08:27:13;;;;;;;19.40;9.45;;;;;;;;;;5091656;28;20720;-49
2022/11/01 08:29:41;;;;;;;21.77;10.20;;;;;;;;;;5091831;28;20052;-53
2022/11/01 08:32:09;;;;;;;23.52;11.63;;;;;;;;;;5091114;28;20083;-53
2022/11/01 08:34:35;;;;;;;24.90;11.57;;;;;;;;;;5088882;28;20048;-51
2022/11/01 08:37:03;;;;;;;24.08;11.40;;;;;;;;;;5091546;28;20052;-51
2022/11/01 08:39:29;;;;;;;25.25;11.95;;;;;;;;;;5092070;28;20048;-52
2022/11/01 08:41:59;;;;;;;25.77;11.20;;;;;;;;;;5090265;28;20086;-51
2022/11/01 08:44:33;;;;;;;26.65;12.10;;;;;;;;;;5091341;28;20048;-50
2022/11/01 08:47:01;;;;;;;19.17;9.73;;;;;;;;;;5091706;28;20056;-50
2022/11/01 08:49:31;;;;;;;23.20;11.35;;;;;;;;;;5085935;28;20039;-52
2022/11/01 08:52:00;;;;;;;23.45;9.85;;;;;;;;;;5091595;28;20036;-48
2022/11/01 08:54:27;;;;;;;20.63;9.68;;;;;;;;;;5091504;28;20121;-49
2022/11/01 08:56:55;;;;;;;18.90;9.10;;;;;;;;;;5086536;28;20048;-49
2022/11/01 08:59:23;;;;;;;22.25;10.88;;;;;;;;;;5088868;28;20064;-50
2022/11/01 09:02:00;;;;;;;21.42;9.30;;;;;;;;;;5090998;28;20471;-49
2022/11/01 09:04:27;;;;;;;22.52;10.55;;;;;;;;;;5089824;28;20055;-49
2022/11/01 09:06:56;;;;;;;20.40;9.25;;;;;;;;;;5091100;28;20059;-48
2022/11/01 09:09:24;;;;;;;17.17;8.25;;;;;;;;;;5091745;28;20047;-48
2022/11/01 09:11:51;;;;;;;19.48;9.38;;;;;;;;;;5093128;28;20047;-52
2022/11/01 09:14:22;;;;;;;16.88;7.57;;;;;;;;;;5092946;28;20052;-50
2022/11/01 09:17:00;;;;;;;21.17;9.18;;;;;;;;;;5083479;28;20127;-50
2022/11/01 09:19:30;;;;;;;23.55;9.82;;;;;;;;;;5093218;28;20101;-49
2022/11/01 09:21:58;;;;;;;22.02;9.70;;;;;;;;;;5091009;28;20105;-48
2022/11/01 09:24:28;;;;;;;18.23;7.35;;;;;;;;;;5088793;28;20657;-48
2022/11/01 09:26:57;;;;;;;21.42;10.32;;;;;;;;;;5092003;28;20392;-49
2022/11/01 09:29:24;;;;;;;17.73;8.65;;;;;;;;;;5094560;28;20056;-51
2022/11/01 09:31:53;;;;;;;13.48;7.25;;;;;;;;;;5094444;28;20447;-50
2022/11/01 09:34:20;;;;;;;16.98;7.85;;;;;;;;;;5095150;28;20139;-51
2022/11/01 09:36:50;;;;;;;18.88;9.40;;;;;;;;;;5094617;28;20059;-48
2022/11/01 09:42:02;;;;;;;17.40;8.73;;;;;;;;;;5092771;28;20040;-48
2022/11/01 09:44:31;;;;;;;19.27;9.30;;;;;;;;;;5092814;28;20059;-48
2022/11/01 09:47:06;;;;;;;16.35;8.00;;;;;;;;;;5094257;28;20055;-53
2022/11/01 09:49:39;;;;;;;19.75;9.60;;;;;;;;;;5094658;28;20058;-49
2022/11/01 09:52:07;;;;;;;23.92;10.43;;;;;;;;;;5089215;28;20051;-50
2022/11/01 09:54:36;;;;;;;22.42;11.10;;;;;;;;;;5091534;28;20040;-50
2022/11/01 09:57:09;;;;;;;19.15;10.13;;;;;;;;;;5093808;28;20655;-53
2022/11/01 09:59:41;;;;;;;23.17;12.07;;;;;;;;;;5085910;28;20052;-52
2022/11/01 10:02:29;;;;;;;22.70;11.65;;;;;;;;;;5092544;28;20040;-49
2022/11/01 10:05:15;;;;;;;22.10;11.13;;;;;;;;;;5083088;28;20055;-48
2022/11/01 10:07:50;;;;;;;17.27;9.15;;;;;;;;;;5094024;28;20052;-48
2022/11/01 10:10:26;;;;;;;21.13;11.70;;;;;;;;;;5084666;28;20052;-47
2022/11/01 10:13:04;;;;;;;22.85;11.35;;;;;;;;;;5094416;28;20055;-50
2022/11/01 10:15:36;;;;;;;18.75;9.30;;;;;;;;;;5085130;28;20056;-53
2022/11/01 10:18:07;;;;;;;17.20;8.85;;;;;;;;;;5094166;28;20051;-50
2022/11/01 10:20:38;;;;;;;22.63;11.75;;;;;;;;;;5091828;28;20044;-50
2022/11/01 10:23:20;;;;;;;21.13;9.88;;;;;;;;;;5086307;28;20048;-50
2022/11/01 10:25:53;;;;;;;14.23;7.95;;;;;;;;;;5087177;28;20048;-51
2022/11/01 10:28:23;;;;;;;18.20;10.02;;;;;;;;;;5091312;28;20142;-49
2022/11/01 10:30:53;;;;;;;18.90;9.65;;;;;;;;;;5091001;28;20044;-50
2022/11/01 10:33:27;;;;;;;18.30;9.63;;;;;;;;;;5086936;28;20071;-49
2022/11/01 10:35:57;;;;;;;17.75;10.18;;;;;;;;;;5093865;28;20062;-48
2022/11/01 10:38:36;;;;;;;16.02;7.22;;;;;;;;;;5079764;28;20494;-48
2022/11/01 10:41:10;;;;;;;16.88;7.57;;;;;;;;;;5085060;28;20107;-50
2022/11/01 10:43:42;;;;;;;20.73;11.00;;;;;;;;;;5085037;28;20056;-49
2022/11/01 10:46:20;;;;;;;21.58;11.32;;;;;;;;;;5093902;28;20071;-50
2022/11/01 10:48:49;;;;;;;16.38;8.05;;;;;;;;;;5085579;28;20056;-50
2022/11/01 10:51:18;;;;;;;19.38;9.77;;;;;;;;;;5083113;28;20048;-49
2022/11/01 10:53:52;;;;;;;15.43;7.80;;;;;;;;;;5091396;28;20044;-50
2022/11/01 10:56:25;;;;;;;16.50;8.23;;;;;;;;;;5093792;28;20131;-50
2022/11/01 10:58:57;;;;;;;17.23;9.27;;;;;;;;;;5091937;28;20075;-49
2022/11/01 11:01:29;;;;;;;13.20;6.95;;;;;;;;;;5093226;28;20056;-51
2022/11/01 11:04:00;;;;;;;17.38;9.13;;;;;;;;;;5092266;28;20052;-50
2022/11/01 11:06:29;;;;;;;17.83;8.57;;;;;;;;;;5091095;28;20404;-49
2022/11/01 11:09:01;;;;;;;14.75;7.45;;;;;;;;;;5087823;28;20460;-49
2022/11/01 11:11:32;;;;;;;17.52;8.57;;;;;;;;;;5092676;28;20436;-50
2022/11/01 11:14:01;;;;;;;20.10;10.27;;;;;;;;;;5087188;28;20376;-49
2022/11/01 11:16:38;;;;;;;13.30;7.60;;;;;;;;;;5087767;28;20052;-49
2022/11/01 11:19:18;;;;;;;17.00;8.45;;;;;;;;;;5092674;28;20048;-51
2022/11/01 11:21:47;;;;;;;15.55;8.60;;;;;;;;;;5089368;28;20405;-49
2022/11/01 11:24:27;;;;;;;19.33;8.90;;;;;;;;;;5088316;28;20056;-48
2022/11/01 11:26:57;;;;;;;13.40;7.28;;;;;;;;;;5091428;28;20483;-50
2022/11/01 11:29:37;;;;;;;12.90;6.63;;;;;;;;;;5092748;28;20056;-50
2022/11/01 11:32:04;;;;;;;14.77;6.75;;;;;;;;;;5086464;28;20048;-49
2022/11/01 11:34:32;;;;;;;10.48;6.53;;;;;;;;;;5092592;28;20059;-50
2022/11/01 11:37:00;;;;;;;15.60;7.53;;;;;;;;;;5083125;28;20047;-53
2022/11/01 11:39:34;;;;;;;14.15;6.90;;;;;;;;;;5091749;28;20468;-53
2022/11/01 11:42:15;;;;;;;14.45;6.80;;;;;;;;;;5093338;28;20044;-50
2022/11/01 11:44:43;;;;;;;13.50;7.88;;;;;;;;;;5091340;28;20052;-49
2022/11/01 11:47:18;;;;;;;16.20;7.65;;;;;;;;;;5087700;28;20060;-48
2022/11/01 11:49:47;;;;;;;19.77;9.80;;;;;;;;;;5091360;28;20052;-47
2022/11/01 11:52:16;;;;;;;19.80;10.10;;;;;;;;;;5092616;28;20159;-49
2022/11/01 11:54:48;;;;;;;18.10;7.75;;;;;;;;;;5092094;28;20048;-51
2022/11/01 11:57:18;;;;;;;17.20;9.32;;;;;;;;;;5092567;28;20162;-49
2022/11/01 11:59:50;;;;;;;16.33;9.38;;;;;;;;;;5092137;28;20468;-50
2022/11/01 12:02:20;;;;;;;15.13;7.60;;;;;;;;;;5092403;28;20434;-52
2022/11/01 12:04:48;;;;;;;19.50;9.73;;;;;;;;;;5091204;28;20052;-51
2022/11/01 12:07:39;;;;;;;20.23;10.35;;;;;;;;;;5090670;28;20052;-49
2022/11/01 12:10:32;;;;;;;21.15;10.02;;;;;;;;;;5088858;28;20040;-49
2022/11/01 12:13:02;;;;;;;22.58;8.90;;;;;;;;;;5092223;28;20080;-49
2022/11/01 12:15:32;;;;;;;23.23;11.45;;;;;;;;;;5092059;28;20453;-48
2022/11/01 12:18:10;;;;;;;17.30;8.63;;;;;;;;;;5092667;28;20050;-50
2022/11/01 12:20:38;;;;;;;19.83;8.57;;;;;;;;;;5091261;28;20047;-53
2022/11/01 12:23:13;;;;;;;24.25;11.02;;;;;;;;;;5092416;28;20047;-54
2022/11/01 12:25:47;;;;;;;21.80;10.43;;;;;;;;;;5083262;28;20078;-53
2022/11/01 12:28:18;;;;;;;18.92;8.77;;;;;;;;;;5092129;28;20622;-50
2022/11/01 12:30:50;;;;;;;21.85;9.93;;;;;;;;;;5086882;28;20059;-50
2022/11/01 12:33:22;;;;;;;23.65;11.65;;;;;;;;;;5090908;28;20110;-52
2022/11/01 12:35:58;;;;;;;23.30;9.68;;;;;;;;;;5092224;28;20084;-51
2022/11/01 12:38:39;;;;;;;22.95;10.43;;;;;;;;;;5088946;28;20516;-49
2022/11/01 12:41:23;;;;;;;18.75;8.63;;;;;;;;;;5097259;28;20469;-50
2022/11/01 12:43:59;;;;;;;20.73;10.27;;;;;;;;;;5079756;28;20056;-51
2022/11/01 12:46:31;;;;;;;13.13;7.03;;;;;;;;;;5080355;28;20056;-50
2022/11/01 12:49:02;;;;;;;17.15;8.27;;;;;;;;;;5091011;28;20056;-50
2022/11/01 12:51:33;;;;;;;17.77;8.30;;;;;;;;;;5094223;28;20461;-49
2022/11/01 12:54:04;;;;;;;17.73;7.47;;;;;;;;;;5095397;28;20055;-50
2022/11/01 12:56:33;;;;;;;12.25;6.63;;;;;;;;;;5095118;28;20087;-50
2022/11/01 12:59:00;;;;;;;13.15;6.82;;;;;;;;;;5086010;28;20063;-49
2022/11/01 13:01:33;;;;;;;11.50;5.82;;;;;;;;;;5095597;28;20048;-50
2022/11/01 13:04:09;;;;;;;13.02;5.63;;;;;;;;;;5095189;28;20048;-49
2022/11/01 13:06:35;;;;;;;;;;;;;;;;;;5096281;28;20051;-50
2022/11/01 13:09:09;;;;;;;17.23;9.13;;;;;;;;;;5091473;28;19919;-49
2022/11/01 13:11:47;;;;;;;16.83;8.48;;;;;;;;;;5095410;28;20048;-49
2022/11/01 13:14:29;;;;;;;12.90;7.72;;;;;;;;;;5092245;28;20051;-50
2022/11/01 13:17:04;;;;;;;12.57;7.22;;;;;;;;;;5083583;28;20047;-49
2022/11/01 13:19:35;;;;;;;11.68;6.15;;;;;;;;;;5095560;28;20151;-49
2022/11/01 13:22:03;;;;;;;13.90;7.57;;;;;;;;;;5085511;28;20040;-50
2022/11/01 13:24:34;;;;;;;11.85;5.88;;;;;;;;;;5095330;28;20377;-49
2022/11/01 13:27:07;;;;;;;12.18;6.25;;;;;;;;;;5093202;28;20043;-50
2022/11/01 13:29:42;;;;;;;10.73;5.32;;;;;;;;;;5095590;28;20055;-49
2022/11/01 13:32:15;;;;;;;11.18;6.32;;;;;;;;;;5095518;28;20119;-49
2022/11/01 13:34:48;;;;;;;9.75;5.45;;;;;;;;;;5091062;28;20052;-51
2022/11/01 13:37:20;;;;;;;10.98;6.00;;;;;;;;;;5095408;28;20078;-52
2022/11/01 13:39:56;;;;;;;12.20;6.55;;;;;;;;;;5095063;28;20051;-51
2022/11/01 13:42:33;;;;;;;11.30;5.78;;;;;;;;;;5093024;28;20689;-51
2022/11/01 13:45:08;;;;;;;9.63;5.07;;;;;;;;;;5090518;28;20051;-50
2022/11/01 13:47:42;;;;;;;12.73;5.95;;;;;;;;;;5094346;28;20500;-50
2022/11/01 13:50:28;;;;;;;8.60;5.07;;;;;;;;;;5094410;28;20051;-50
2022/11/01 13:53:01;;;;;;;12.18;6.20;;;;;;;;;;5090172;28;20460;-48
2022/11/01 13:55:33;;;;;;;17.38;7.70;;;;;;;;;;5094815;28;20059;-49
2022/11/01 13:58:16;;;;;;;14.10;7.35;;;;;;;;;;5093807;28;20054;-48
2022/11/01 14:00:44;;;;;;;13.38;6.13;;;;;;;;;;5089642;28;20133;-49
2022/11/01 14:03:23;;;;;;;9.68;5.45;;;;;;;;;;5085588;28;20063;-49
2022/11/01 14:06:05;;;;;;;13.80;6.10;;;;;;;;;;5086813;28;20048;-49
2022/11/01 14:08:36;;;;;;;10.88;6.80;;;;;;;;;;5088555;28;20055;-49
2022/11/01 14:11:04;;;;;;;12.80;5.85;;;;;;;;;;5078608;28;20041;-52
2022/11/01 14:13:45;;;;;;;11.82;6.57;;;;;;;;;;5089473;28;20063;-49
2022/11/01 14:16:19;;;;;;;8.65;5.00;;;;;;;;;;5094828;28;20151;-48
2022/11/01 14:19:11;;;;;;;10.35;5.53;;;;;;;;;;5086137;28;20476;-49
2022/11/01 14:21:45;;;;;;;7.93;5.07;;;;;;;;;;5089631;28;20127;-50
2022/11/01 14:24:28;;;;;;;10.75;6.78;;;;;;;;;;5090279;28;20496;-51
2022/11/01 14:27:13;;;;;;;14.85;8.70;;;;;;;;;;5089685;28;20051;-54
2022/11/01 14:29:42;;;;;;;13.10;7.68;;;;;;;;;;5087525;28;20048;-53
2022/11/01 14:32:09;;;;;;;12.93;7.15;;;;;;;;;;5093136;28;20047;-54
2022/11/01 14:34:37;;;;;;;15.07;7.68;;;;;;;;;;5093086;28;20052;-54
2022/11/01 14:37:17;;;;;;;14.15;8.20;;;;;;;;;;5090243;28;20044;-54
2022/11/01 14:39:48;;;;;;;15.57;7.85;;;;;;;;;;5093015;28;20048;-51
2022/11/01 14:42:15;;;;;;;15.50;7.60;;;;;;;;;;5093013;28;20064;-52
2022/11/01 14:44:53;;;;;;;13.65;8.07;;;;;;;;;;5092291;28;20062;-54
2022/11/01 14:47:25;;;;;;;16.00;8.48;;;;;;;;;;5088575;28;20044;-53
2022/11/01 14:49:54;;;;;;;16.65;8.52;;;;;;;;;;5089304;28;20040;-53
2022/11/01 14:52:25;;;;;;;17.50;8.48;;;;;;;;;;5092336;28;20040;-55
2022/11/01 14:55:03;;;;;;;16.83;9.30;;;;;;;;;;5091195;28;20040;-54
2022/11/01 14:57:33;;;;;;;15.98;8.00;;;;;;;;;;5093629;28;20048;-54
2022/11/01 15:00:22;;;;;;;19.50;10.27;;;;;;;;;;5093648;28;20101;-53
2022/11/01 15:02:52;;;;;;;17.60;9.63;;;;;;;;;;5089713;28;20048;-54
2022/11/01 15:05:22;;;;;;;16.33;9.55;;;;;;;;;;5088819;28;20048;-51
2022/11/01 15:07:53;;;;;;;18.33;10.38;;;;;;;;;;5091985;28;20047;-52
2022/11/01 15:10:21;;;;;;;16.02;8.15;;;;;;;;;;5092509;28;20058;-54
2022/11/01 15:12:58;;;;;;;18.73;10.63;;;;;;;;;;5093515;28;20044;-54
2022/11/01 15:15:29;;;;;;;17.58;9.18;;;;;;;;;;5093577;28;20040;-54